Archival Weather

Ambodedjo

Ambodedjo, Mali (GAMB)

Report from: Tuesday, June 6, 2023 12:00 PM GMT
Current time: Wednesday, May 29, 2024 7:54 AM GMT

Current weather – Weather history – Daily summaries
Weather forecast

Temperature40.0°C (104.0°F)
Heat index39.9°C (103.9°F)
Dew point14.0°C (57.2°F)
Winds 6 kts (3.1 m/s, 6.9 mph) North-Northeast (20°)
Clouds Sky clear
Altimeter29.85 in.Hg (1011 mB)
Relative humidity22 %
Density altitude3,107 ft. (947 m)
Remarks Ceiling and visibility OK
Flight conditions Visual Meteorological Conditions
Raw dataGAMB 061200Z 02006KT CAVOK 40/14 Q1011
An error has occurred. This application may no longer respond until reloaded. Reload 🗙